Time;durP1;ratioP1;P1;durP2;ratioP2;P2;SDS_P1;SDS_P2;PMS_P1;PMS_P2;Temp;Humidity;BMP_temperature;BMP_pressure;BME280_temperature;BME280_humidity;BME280_pressure;Samples;Min_cycle;Max_cycle;Signal;HPM_P1;HPM_P2
2022/03/25 00:01:41;;;;;;;;;;;3.60;97.50;;;;;;5055037;28;20397;-69
2022/03/25 00:04:07;;;;;;;;;;;3.60;97.70;;;;;;5055103;28;19919;-69
2022/03/25 00:06:32;;;;;;;;;;;3.60;97.70;;;;;;5055080;28;19958;-69
2022/03/25 00:08:58;;;;;;;;;;;3.60;97.70;;;;;;5053715;28;19905;-69
2022/03/25 00:11:24;;;;;;;;;;;3.50;97.70;;;;;;5054856;28;19904;-69
2022/03/25 00:13:49;;;;;;;;;;;3.50;97.80;;;;;;5055177;28;19905;-69
2022/03/25 00:16:15;;;;;;;;;;;3.50;98.00;;;;;;5054797;28;19999;-69
2022/03/25 00:18:40;;;;;;;;;;;3.40;98.40;;;;;;5054226;28;19919;-69
2022/03/25 00:21:06;;;;;;;;;;;3.40;98.40;;;;;;5054668;28;19911;-69
2022/03/25 00:23:31;;;;;;;;;;;3.40;98.60;;;;;;5054690;28;20007;-70
2022/03/25 00:25:57;;;;;;;;;;;3.40;98.60;;;;;;5054937;28;20419;-69
2022/03/25 00:28:23;;;;;;;;;;;3.30;98.60;;;;;;5054550;28;19905;-69
2022/03/25 00:30:50;;;;;;;;;;;3.30;98.60;;;;;;5054630;28;20007;-69
2022/03/25 00:33:15;;;;;;;;;;;3.30;98.50;;;;;;5054511;28;20258;-69
2022/03/25 00:35:41;;;;;;;;;;;3.30;98.60;;;;;;5054683;28;19916;-69
2022/03/25 00:38:08;;;;;;;;;;;3.30;98.90;;;;;;5054990;28;19935;-69
2022/03/25 00:40:34;;;;;;;;;;;3.20;99.00;;;;;;5054283;28;19904;-69
2022/03/25 00:43:00;;;;;;;;;;;3.20;99.10;;;;;;5054618;28;19955;-69
2022/03/25 00:45:28;;;;;;;;;;;3.10;99.20;;;;;;5054275;28;19904;-69
2022/03/25 00:47:54;;;;;;;;;;;3.10;99.30;;;;;;5054534;28;19912;-69
2022/03/25 00:50:20;;;;;;;;;;;3.00;99.40;;;;;;5052891;28;20418;-69
2022/03/25 00:52:46;;;;;;;;;;;3.00;99.40;;;;;;5054308;28;19955;-69
2022/03/25 00:55:12;;;;;;;;;;;3.00;99.60;;;;;;5054148;28;20353;-69
2022/03/25 00:57:37;;;;;;;;;;;3.00;99.70;;;;;;5053916;28;19912;-69
2022/03/25 01:00:04;;;;;;;;;;;2.90;99.90;;;;;;5053950;28;20369;-69
2022/03/25 01:02:30;;;;;;;;;;;2.90;99.80;;;;;;5052728;28;19904;-69
2022/03/25 01:04:56;;;;;;;;;;;2.90;99.90;;;;;;5054312;28;20273;-69
2022/03/25 01:07:21;;;;;;;;;;;2.90;99.90;;;;;;5053911;28;20349;-69
2022/03/25 01:09:47;;;;;;;;;;;2.90;99.90;;;;;;5053833;28;19912;-69
2022/03/25 01:12:13;;;;;;;;;;;2.90;99.90;;;;;;5053787;28;19911;-69
2022/03/25 01:14:38;;;;;;;;;;;2.90;99.90;;;;;;5054069;28;19987;-69
2022/03/25 01:17:04;;;;;;;;;;;2.90;99.90;;;;;;5052455;28;19958;-69
2022/03/25 01:19:30;;;;;;;;;;;2.90;99.90;;;;;;5054253;28;19905;-69
2022/03/25 01:21:56;;;;;;;;;;;2.90;99.90;;;;;;5052436;28;19911;-69
2022/03/25 01:24:21;;;;;;;;;;;2.80;99.90;;;;;;5053681;28;19958;-69
2022/03/25 01:26:47;;;;;;;;;;;2.80;99.90;;;;;;5053790;28;20281;-69
2022/03/25 01:29:13;;;;;;;;;;;2.80;99.90;;;;;;5052968;28;19912;-69
2022/03/25 01:31:39;;;;;;;;;;;2.80;99.90;;;;;;5053909;28;19912;-69
2022/03/25 01:34:05;;;;;;;;;;;2.70;99.90;;;;;;5054289;28;19912;-69
2022/03/25 01:36:30;;;;;;;;;;;2.60;99.90;;;;;;5053690;28;19909;-69
2022/03/25 01:38:56;;;;;;;;;;;2.40;99.90;;;;;;5053696;28;20379;-69
2022/03/25 01:41:22;;;;;;;;;;;2.20;99.90;;;;;;5052293;28;20448;-69
2022/03/25 01:43:59;;;;;;;;;;;2.20;99.90;;;;;;5053625;28;19905;-69
2022/03/25 01:46:26;;;;;;;;;;;2.20;99.90;;;;;;5052367;28;19927;-69
2022/03/25 01:48:52;;;;;;;;;;;2.20;99.90;;;;;;5053859;28;19908;-69
2022/03/25 01:51:19;;;;;;;;;;;2.20;99.90;;;;;;5053481;28;19905;-69
2022/03/25 01:53:47;;;;;;;;;;;2.20;99.90;;;;;;5053513;28;19905;-69
2022/03/25 01:56:18;;;;;;;;;;;2.20;99.90;;;;;;5053445;28;20428;-69
2022/03/25 01:58:44;;;;;;;;;;;2.30;99.90;;;;;;5053473;28;20327;-69
2022/03/25 02:01:10;;;;;;;;;;;2.30;99.90;;;;;;5053453;28;19911;-69
2022/03/25 02:03:35;;;;;;;;;;;2.30;99.90;;;;;;5053471;28;19911;-69
2022/03/25 02:06:01;;;;;;;;;;;2.30;99.90;;;;;;5053466;28;19962;-69
2022/03/25 02:08:26;;;;;;;;;;;2.30;99.90;;;;;;5053971;28;20364;-69
2022/03/25 02:10:52;;;;;;;;;;;2.20;99.90;;;;;;5053464;28;20063;-68
2022/03/25 02:13:17;;;;;;;;;;;2.20;99.90;;;;;;5053334;28;19908;-68
2022/03/25 02:15:44;;;;;;;;;;;2.20;99.90;;;;;;5053277;28;19992;-69
2022/03/25 02:18:14;;;;;;;;;;;2.20;99.90;;;;;;5053297;28;19905;-68
2022/03/25 02:20:40;;;;;;;;;;;2.20;99.90;;;;;;5053468;28;19936;-68
2022/03/25 02:23:06;;;;;;;;;;;2.20;99.90;;;;;;5053260;28;20277;-68
2022/03/25 02:25:32;;;;;;;;;;;2.20;99.90;;;;;;5051962;28;19938;-68
2022/03/25 02:27:58;;;;;;;;;;;2.10;99.90;;;;;;5053235;28;19951;-68
2022/03/25 02:30:25;;;;;;;;;;;2.00;99.90;;;;;;5053638;28;19919;-69
2022/03/25 02:32:51;;;;;;;;;;;2.00;99.90;;;;;;5053463;28;19904;-69
2022/03/25 02:35:17;;;;;;;;;;;2.00;99.90;;;;;;5053728;28;19911;-69
2022/03/25 02:37:42;;;;;;;;;;;1.90;99.90;;;;;;5053298;28;20003;-69
2022/03/25 02:40:08;;;;;;;;;;;2.00;99.90;;;;;;5053069;28;20004;-69
2022/03/25 02:42:34;;;;;;;;;;;1.90;99.90;;;;;;5056599;28;19911;-69
2022/03/25 02:45:00;;;;;;;;;;;2.00;99.90;;;;;;5055484;28;20038;-69
2022/03/25 02:47:25;;;;;;;;;;;1.90;99.90;;;;;;5057239;28;20307;-69
2022/03/25 02:49:51;;;;;;;;;;;1.80;99.90;;;;;;5056564;28;20003;-69
2022/03/25 02:52:17;;;;;;;;;;;1.70;99.90;;;;;;5056615;28;19911;-69
2022/03/25 02:54:42;;;;;;;;;;;1.70;99.90;;;;;;5056564;28;19905;-69
2022/03/25 02:57:08;;;;;;;;;;;1.70;99.90;;;;;;5056328;28;19995;-69
2022/03/25 02:59:33;;;;;;;;;;;1.70;99.90;;;;;;5056688;28;19909;-69
2022/03/25 03:01:59;;;;;;;;;;;1.70;99.90;;;;;;5056384;28;19909;-69
2022/03/25 03:04:25;;;;;;;;;;;1.70;99.90;;;;;;5056643;28;19911;-69
2022/03/25 03:06:51;;;;;;;;;;;1.70;99.90;;;;;;5056598;28;19909;-69
2022/03/25 03:09:16;;;;;;;;;;;1.70;99.90;;;;;;5056839;28;20406;-69
2022/03/25 03:11:43;;;;;;;;;;;1.60;99.90;;;;;;5056177;28;19905;-69
2022/03/25 03:14:08;;;;;;;;;;;1.60;99.90;;;;;;5054889;28;19995;-69
2022/03/25 03:16:34;;;;;;;;;;;1.60;99.90;;;;;;5056333;28;19959;-69
2022/03/25 03:18:59;;;;;;;;;;;1.60;99.90;;;;;;5056075;28;19905;-69
2022/03/25 03:21:25;;;;;;;;;;;1.60;99.90;;;;;;5056002;28;19905;-69
2022/03/25 03:23:54;;;;;;;;;;;1.50;99.90;;;;;;5054768;28;19912;-70
2022/03/25 03:26:20;;;;;;;;;;;1.50;99.90;;;;;;5056221;28;19932;-70
2022/03/25 03:28:45;;;;;;;;;;;1.50;99.90;;;;;;5055903;28;19908;-69
2022/03/25 03:31:11;;;;;;;;;;;1.50;99.90;;;;;;5055796;28;19909;-69
2022/03/25 03:33:36;;;;;;;;;;;1.50;99.90;;;;;;5056055;28;19915;-69
2022/03/25 03:36:02;;;;;;;;;;;1.50;99.90;;;;;;5055685;28;19909;-70
2022/03/25 03:38:28;;;;;;;;;;;1.50;99.90;;;;;;5054493;28;19967;-69
2022/03/25 03:40:53;;;;;;;;;;;1.50;99.90;;;;;;5055880;28;20345;-69
2022/03/25 03:43:19;;;;;;;;;;;1.40;99.90;;;;;;5055889;28;19905;-69
2022/03/25 03:45:44;;;;;;;;;;;1.50;99.90;;;;;;5055558;28;20023;-70
2022/03/25 03:48:11;;;;;;;;;;;1.40;99.90;;;;;;5054531;28;20367;-70
2022/03/25 03:50:36;;;;;;;;;;;1.40;99.90;;;;;;5055450;28;20007;-70
2022/03/25 03:53:02;;;;;;;;;;;1.40;99.90;;;;;;5054913;28;19952;-69
2022/03/25 03:55:28;;;;;;;;;;;1.40;99.90;;;;;;5055412;28;19905;-69
2022/03/25 03:57:53;;;;;;;;;;;1.40;99.90;;;;;;5055211;28;19912;-70
2022/03/25 04:00:20;;;;;;;;;;;1.40;99.90;;;;;;5055247;28;19912;-70
2022/03/25 04:02:46;;;;;;;;;;;1.30;99.90;;;;;;5055330;28;19905;-70
2022/03/25 04:05:11;;;;;;;;;;;1.30;99.90;;;;;;5055487;28;19908;-70
2022/03/25 04:07:44;;;;;;;;;;;1.30;99.90;;;;;;5054206;28;20403;-70
2022/03/25 04:10:10;;;;;;;;;;;1.30;99.90;;;;;;5053786;28;19904;-70
2022/03/25 04:12:36;;;;;;;;;;;1.20;99.90;;;;;;5055385;28;19947;-70
2022/03/25 04:15:03;;;;;;;;;;;1.20;99.90;;;;;;5055022;28;19994;-70
2022/03/25 04:17:28;;;;;;;;;;;1.20;99.90;;;;;;5053623;28;19909;-70
2022/03/25 04:19:54;;;;;;;;;;;1.10;99.90;;;;;;5055131;28;19919;-70
2022/03/25 04:22:19;;;;;;;;;;;1.10;99.90;;;;;;5055458;28;19905;-70
2022/03/25 04:24:45;;;;;;;;;;;1.10;99.90;;;;;;5053507;28;19911;-70
2022/03/25 04:27:10;;;;;;;;;;;1.10;99.90;;;;;;5055027;28;19911;-70
2022/03/25 04:29:36;;;;;;;;;;;1.00;99.90;;;;;;5053384;28;20006;-70
2022/03/25 04:32:02;;;;;;;;;;;1.00;99.90;;;;;;5054914;28;19908;-70
2022/03/25 04:34:27;;;;;;;;;;;1.00;99.90;;;;;;5054910;28;19932;-70
2022/03/25 04:36:53;;;;;;;;;;;1.00;99.90;;;;;;5054566;28;20348;-70
2022/03/25 04:39:18;;;;;;;;;;;0.90;99.90;;;;;;5054838;28;20372;-70
2022/03/25 04:41:44;;;;;;;;;;;0.90;99.90;;;;;;5054532;28;19905;-70
2022/03/25 04:44:10;;;;;;;;;;;0.90;99.90;;;;;;5054784;28;19911;-70
2022/03/25 04:46:35;;;;;;;;;;;0.90;99.90;;;;;;5054462;28;19905;-70
2022/03/25 04:49:01;;;;;;;;;;;0.80;99.90;;;;;;5054412;28;20404;-69
2022/03/25 04:51:27;;;;;;;;;;;0.80;99.90;;;;;;5054228;28;19995;-70
2022/03/25 04:53:52;;;;;;;;;;;0.70;99.90;;;;;;5054608;28;19904;-70
2022/03/25 04:56:18;;;;;;;;;;;0.60;99.90;;;;;;5054161;28;19909;-70
2022/03/25 04:58:44;;;;;;;;;;;0.50;99.90;;;;;;5054136;28;19921;-70
2022/03/25 05:01:09;;;;;;;;;;;0.50;99.90;;;;;;5054191;28;19905;-69
2022/03/25 05:03:35;;;;;;;;;;;0.50;99.90;;;;;;5052701;28;19987;-70
2022/03/25 05:06:01;;;;;;;;;;;0.50;99.90;;;;;;5054423;28;19912;-69
2022/03/25 05:08:27;;;;;;;;;;;0.60;99.90;;;;;;5054268;28;19905;-69
2022/03/25 05:10:52;;;;;;;;;;;0.60;99.90;;;;;;5054060;28;19912;-69
2022/03/25 05:13:18;;;;;;;;;;;0.60;99.90;;;;;;5052604;28;19905;-69
2022/03/25 05:15:44;;;;;;;;;;;0.60;99.90;;;;;;5054175;28;19904;-69
2022/03/25 05:18:09;;;;;;;;;;;0.60;99.90;;;;;;5053906;28;19927;-69
2022/03/25 05:20:36;;;;;;;;;;;0.60;99.90;;;;;;5053766;28;19911;-69
2022/03/25 05:23:01;;;;;;;;;;;0.60;99.90;;;;;;5054146;28;19950;-69
2022/03/25 05:25:27;;;;;;;;;;;0.60;99.90;;;;;;5052481;28;19908;-69
2022/03/25 05:27:57;;;;;;;;;;;0.60;99.90;;;;;;5053695;28;20380;-69
2022/03/25 05:30:24;;;;;;;;;;;0.60;99.90;;;;;;5053760;28;20018;-69
2022/03/25 05:32:50;;;;;;;;;;;0.60;99.90;;;;;;5052493;28;19995;-69
2022/03/25 05:35:16;;;;;;;;;;;0.60;99.90;;;;;;5053622;28;20349;-69
2022/03/25 05:37:42;;;;;;;;;;;0.60;99.90;;;;;;5053601;28;19919;-69
2022/03/25 05:40:08;;;;;;;;;;;0.60;99.90;;;;;;5052340;28;19904;-69
2022/03/25 05:42:34;;;;;;;;;;;0.60;99.90;;;;;;5052196;28;19904;-69
2022/03/25 05:45:00;;;;;;;;;;;0.60;99.90;;;;;;5053649;28;19905;-69
2022/03/25 05:47:25;;;;;;;;;;;0.50;99.90;;;;;;5053583;28;19919;-69
2022/03/25 05:49:51;;;;;;;;;;;0.50;99.90;;;;;;5053518;28;19905;-69
2022/03/25 05:52:17;;;;;;;;;;;0.50;99.90;;;;;;5052285;28;19904;-69
2022/03/25 05:54:42;;;;;;;;;;;0.60;99.90;;;;;;5053577;28;19912;-69
2022/03/25 05:57:08;;;;;;;;;;;0.60;99.90;;;;;;5053586;28;19913;-69
2022/03/25 05:59:33;;;;;;;;;;;0.60;99.90;;;;;;5053718;28;20353;-69
2022/03/25 06:01:59;;;;;;;;;;;0.60;99.90;;;;;;5053765;28;19951;-69
2022/03/25 06:04:24;;;;;;;;;;;0.60;99.90;;;;;;5053790;28;19908;-69
2022/03/25 06:06:50;;;;;;;;;;;0.70;99.90;;;;;;5053730;28;19908;-69
2022/03/25 06:09:16;;;;;;;;;;;0.60;99.90;;;;;;5052173;28;20336;-69
2022/03/25 06:11:42;;;;;;;;;;;0.60;99.90;;;;;;5053561;28;19928;-69
2022/03/25 06:14:08;;;;;;;;;;;0.60;99.90;;;;;;5053385;28;19905;-69
2022/03/25 06:16:33;;;;;;;;;;;0.60;99.90;;;;;;5055372;28;20361;-69
2022/03/25 06:18:59;;;;;;;;;;;0.60;99.90;;;;;;5056025;28;20284;-69
2022/03/25 06:21:25;;;;;;;;;;;0.60;99.90;;;;;;5057174;28;20344;-69
2022/03/25 06:23:51;;;;;;;;;;;0.60;99.90;;;;;;5057177;28;20365;-69
2022/03/25 06:26:16;;;;;;;;;;;0.60;99.90;;;;;;5055855;28;20357;-69
2022/03/25 06:28:42;;;;;;;;;;;0.70;99.90;;;;;;5057021;28;19995;-69
2022/03/25 06:31:08;;;;;;;;;;;0.70;99.90;;;;;;5057496;28;19909;-69
2022/03/25 06:33:34;;;;;;;;;;;0.70;99.90;;;;;;5056850;28;19908;-69
2022/03/25 06:36:00;;;;;;;;;;;0.80;99.90;;;;;;5056924;28;20289;-69
2022/03/25 06:38:26;;;;;;;;;;;0.80;99.90;;;;;;5056908;28;19905;-69
2022/03/25 06:40:51;;;;;;;;;;;0.90;99.90;;;;;;5056681;28;19915;-69
2022/03/25 06:43:17;;;;;;;;;;;1.00;99.90;;;;;;5057017;28;19904;-69
2022/03/25 06:45:42;;;;;;;;;;;1.00;99.90;;;;;;5056962;28;19936;-69
2022/03/25 06:48:08;;;;;;;;;;;1.10;99.90;;;;;;5057286;28;19927;-69
2022/03/25 06:50:34;;;;;;;;;;;1.10;99.90;;;;;;5056632;28;19991;-69
2022/03/25 06:53:01;;;;;;;;;;;1.10;99.90;;;;;;5056609;28;19905;-69
2022/03/25 06:55:27;;;;;;;;;;;1.20;99.90;;;;;;5056532;28;19951;-69
2022/03/25 06:57:53;;;;;;;;;;;1.20;99.90;;;;;;5056456;28;19951;-69
2022/03/25 07:00:19;;;;;;;;;;;1.30;99.90;;;;;;5056931;28;20358;-69
2022/03/25 07:02:45;;;;;;;;;;;1.30;99.90;;;;;;5055116;28;19905;-69
2022/03/25 07:05:11;;;;;;;;;;;1.40;99.90;;;;;;5055160;28;20324;-69
2022/03/25 07:07:38;;;;;;;;;;;1.50;99.90;;;;;;5055110;28;19944;-69
2022/03/25 07:10:09;;;;;;;;;;;1.60;99.90;;;;;;5056275;28;19909;-69
2022/03/25 07:12:45;;;;;;;;;;;1.60;99.90;;;;;;5056292;28;20361;-69
2022/03/25 07:15:12;;;;;;;;;;;1.70;99.90;;;;;;5056566;28;19905;-69
2022/03/25 07:17:38;;;;;;;;;;;1.80;99.90;;;;;;5056131;28;19930;-69
2022/03/25 07:20:05;;;;;;;;;;;1.90;99.90;;;;;;5056043;28;19911;-69
2022/03/25 07:22:31;;;;;;;;;;;2.00;99.90;;;;;;5056894;28;20277;-70
2022/03/25 07:24:57;;;;;;;;;;;2.10;99.90;;;;;;5056276;28;19904;-69
2022/03/25 07:27:22;;;;;;;;;;;2.20;99.90;;;;;;5054608;28;19912;-69
2022/03/25 07:29:48;;;;;;;;;;;2.20;99.90;;;;;;5055827;28;19913;-69
2022/03/25 07:32:14;;;;;;;;;;;2.30;99.90;;;;;;5056468;28;19905;-69
2022/03/25 07:34:39;;;;;;;;;;;2.40;99.90;;;;;;5054587;28;20377;-69
2022/03/25 07:37:05;;;;;;;;;;;2.50;99.90;;;;;;5055780;28;19963;-69
2022/03/25 07:39:31;;;;;;;;;;;2.60;99.90;;;;;;5056266;28;19905;-69
2022/03/25 07:41:57;;;;;;;;;;;2.60;99.90;;;;;;5056039;28;20249;-69
2022/03/25 07:44:22;;;;;;;;;;;2.80;99.90;;;;;;5055714;28;19905;-69
2022/03/25 07:46:48;;;;;;;;;;;2.90;99.90;;;;;;5055626;28;19912;-69
2022/03/25 07:49:14;;;;;;;;;;;3.10;99.90;;;;;;5055960;28;19911;-70
2022/03/25 07:51:39;;;;;;;;;;;3.20;99.90;;;;;;5056021;28;19904;-69
2022/03/25 07:54:06;;;;;;;;;;;3.40;99.90;;;;;;5055885;28;19905;-70
2022/03/25 07:56:31;;;;;;;;;;;3.50;99.90;;;;;;5055252;28;20525;-70
2022/03/25 07:58:59;;;;;;;;;;;3.70;99.90;;;;;;5054197;28;19917;-70
2022/03/25 08:01:25;;;;;;;;;;;3.80;99.90;;;;;;5055431;28;20361;-70
2022/03/25 08:03:50;;;;;;;;;;;3.90;99.90;;;;;;5054046;28;19947;-70
2022/03/25 08:06:16;;;;;;;;;;;4.10;99.90;;;;;;5054003;28;19904;-69
2022/03/25 08:08:41;;;;;;;;;;;4.20;99.90;;;;;;5054163;28;20360;-69
2022/03/25 08:11:08;;;;;;;;;;;4.40;99.90;;;;;;5053817;28;19912;-69
2022/03/25 08:13:34;;;;;;;;;;;4.50;99.90;;;;;;5055103;28;19991;-69
2022/03/25 08:16:00;;;;;;;;;;;4.70;99.90;;;;;;5054964;28;19955;-69
2022/03/25 08:18:25;;;;;;;;;;;4.80;99.90;;;;;;5053685;28;19936;-69
2022/03/25 08:20:53;;;;;;;;;;;5.00;99.90;;;;;;5054927;28;19912;-70
2022/03/25 08:28:50;;;;;;;;;;;5.40;99.90;;;;;;5054891;28;20284;-70
2022/03/25 08:31:15;;;;;;;;;;;5.60;99.90;;;;;;5054805;28;19905;-70
2022/03/25 08:33:41;;;;;;;;;;;5.70;99.90;;;;;;5054766;28;19992;-70
2022/03/25 08:36:06;;;;;;;;;;;5.80;99.90;;;;;;5054568;28;19916;-70
2022/03/25 08:38:32;;;;;;;;;;;5.90;99.90;;;;;;5054528;28;19905;-70
2022/03/25 08:40:58;;;;;;;;;;;6.10;99.90;;;;;;5054502;28;19904;-70
2022/03/25 08:43:23;;;;;;;;;;;6.20;99.90;;;;;;5054499;28;19905;-70
2022/03/25 08:45:49;;;;;;;;;;;6.40;99.90;;;;;;5054751;28;19955;-70
2022/03/25 08:48:14;;;;;;;;;;;6.50;99.90;;;;;;5053451;28;19920;-69
2022/03/25 08:50:40;;;;;;;;;;;6.60;99.90;;;;;;5054355;28;20357;-70
2022/03/25 08:53:06;;;;;;;;;;;6.80;98.60;;;;;;5054455;28;20327;-70
2022/03/25 08:55:32;;;;;;;;;;;6.90;98.00;;;;;;5054658;28;19908;-70
2022/03/25 08:57:58;;;;;;;;;;;7.10;97.80;;;;;;5052887;28;20376;-70
2022/03/25 09:00:23;;;;;;;;;;;7.20;97.00;;;;;;5054730;28;19904;-70
2022/03/25 09:02:49;;;;;;;;;;;7.40;96.50;;;;;;5054206;28;19905;-70
2022/03/25 09:05:15;;;;;;;;;;;7.50;95.60;;;;;;5054473;28;19909;-70
2022/03/25 09:07:41;;;;;;;;;;;7.70;95.00;;;;;;5054409;28;20357;-70
2022/03/25 09:10:08;;;;;;;;;;;7.80;94.30;;;;;;5054495;28;19905;-70
2022/03/25 09:12:34;;;;;;;;;;;8.00;93.50;;;;;;5054133;28;19962;-69
2022/03/25 09:14:59;;;;;;;;;;;8.10;92.10;;;;;;5054314;28;19904;-69
2022/03/25 09:17:25;;;;;;;;;;;8.30;91.10;;;;;;5054449;28;20319;-69
2022/03/25 09:19:51;;;;;;;;;;;8.50;90.10;;;;;;5054135;28;19909;-70
2022/03/25 09:22:16;;;;;;;;;;;8.60;90.60;;;;;;5053899;28;19904;-70
2022/03/25 09:24:42;;;;;;;;;;;8.80;91.10;;;;;;5054175;28;19935;-70
2022/03/25 09:27:07;;;;;;;;;;;9.00;90.90;;;;;;5053847;28;19904;-69
2022/03/25 09:29:33;;;;;;;;;;;9.20;90.50;;;;;;5054028;28;19905;-70
2022/03/25 09:31:59;;;;;;;;;;;9.30;90.40;;;;;;5054053;28;19905;-70
2022/03/25 09:37:08;;;;;;;;;;;9.70;89.30;;;;;;5053760;28;20042;-70
2022/03/25 09:39:34;;;;;;;;;;;9.90;87.10;;;;;;5053983;28;19905;-69
2022/03/25 09:42:00;;;;;;;;;;;10.10;86.00;;;;;;5053655;28;20003;-69
2022/03/25 09:44:26;;;;;;;;;;;10.20;86.20;;;;;;5053668;28;19911;-69
2022/03/25 09:46:51;;;;;;;;;;;10.30;84.30;;;;;;5053664;28;19908;-69
2022/03/25 09:49:17;;;;;;;;;;;10.50;83.20;;;;;;5053590;28;19958;-69
2022/03/25 09:51:43;;;;;;;;;;;10.60;77.90;;;;;;5056024;28;19927;-69
2022/03/25 09:54:09;;;;;;;;;;;10.70;78.60;;;;;;5057743;28;19905;-69
2022/03/25 09:56:35;;;;;;;;;;;10.90;77.70;;;;;;5057532;28;19908;-70
2022/03/25 09:59:02;;;;;;;;;;;11.10;78.70;;;;;;5057592;28;19908;-69
2022/03/25 10:01:27;;;;;;;;;;;11.20;78.70;;;;;;5057703;28;19998;-69
2022/03/25 10:03:53;;;;;;;;;;;11.30;76.50;;;;;;5057795;28;19905;-69
2022/03/25 10:06:19;;;;;;;;;;;11.40;76.40;;;;;;5058011;28;19931;-69
2022/03/25 10:08:53;;;;;;;;;;;11.60;74.60;;;;;;5057381;28;20345;-69
2022/03/25 10:11:20;;;;;;;;;;;11.80;71.90;;;;;;5057946;28;20308;-69
2022/03/25 10:13:46;;;;;;;;;;;11.90;69.90;;;;;;5057357;28;19909;-69
2022/03/25 10:16:24;;;;;;;;;;;12.10;67.80;;;;;;5057509;28;19912;-69
2022/03/25 10:18:54;;;;;;;;;;;12.10;68.50;;;;;;5055957;28;19951;-69
2022/03/25 10:21:19;;;;;;;;;;;12.30;65.50;;;;;;5057171;28;19958;-70
2022/03/25 10:23:45;;;;;;;;;;;12.40;66.00;;;;;;5057468;28;19908;-69
2022/03/25 10:26:11;;;;;;;;;;;12.40;64.30;;;;;;5057123;28;20330;-69
2022/03/25 10:28:40;;;;;;;;;;;12.50;64.40;;;;;;5057064;28;19999;-70
2022/03/25 10:31:14;;;;;;;;;;;12.50;63.50;;;;;;5056939;28;19951;-70
2022/03/25 10:33:57;;;;;;;;;;;12.70;61.70;;;;;;5057245;28;19940;-70
2022/03/25 10:36:25;;;;;;;;;;;12.80;58.40;;;;;;5056946;28;19913;-69
2022/03/25 10:38:57;;;;;;;;;;;12.90;57.80;;;;;;5057242;28;19928;-70
2022/03/25 10:41:36;;;;;;;;;;;13.00;58.20;;;;;;5057007;28;19911;-69
2022/03/25 10:44:05;;;;;;;;;;;13.10;57.50;;;;;;5055644;28;20327;-70
2022/03/25 10:46:33;;;;;;;;;;;13.30;55.30;;;;;;5056820;28;20361;-70
2022/03/25 10:49:00;;;;;;;;;;;13.40;56.00;;;;;;5056706;28;19904;-70
2022/03/25 10:51:26;;;;;;;;;;;13.50;56.40;;;;;;5056680;28;19912;-70
2022/03/25 10:53:56;;;;;;;;;;;13.60;57.90;;;;;;5055433;28;19909;-70
2022/03/25 10:56:22;;;;;;;;;;;13.70;57.90;;;;;;5056478;28;19931;-70
2022/03/25 10:58:52;;;;;;;;;;;13.90;57.40;;;;;;5056474;28;19917;-70
2022/03/25 11:01:17;;;;;;;;;;;14.00;57.40;;;;;;5056102;28;19912;-70
2022/03/25 11:03:44;;;;;;;;;;;14.10;56.60;;;;;;5056746;28;19905;-70
2022/03/25 11:06:13;;;;;;;;;;;14.20;55.30;;;;;;5056693;28;19905;-70
2022/03/25 11:08:39;;;;;;;;;;;14.30;57.10;;;;;;5056648;28;19912;-70
2022/03/25 11:11:05;;;;;;;;;;;14.50;55.90;;;;;;5055063;28;20281;-70
2022/03/25 11:13:31;;;;;;;;;;;14.60;55.80;;;;;;5056298;28;20432;-70
2022/03/25 11:15:57;;;;;;;;;;;14.60;53.90;;;;;;5056176;28;19932;-70
2022/03/25 11:18:27;;;;;;;;;;;14.70;52.20;;;;;;5056566;28;20406;-70
2022/03/25 11:20:52;;;;;;;;;;;14.70;50.60;;;;;;5056156;28;19944;-70
2022/03/25 11:23:26;;;;;;;;;;;14.90;50.90;;;;;;5056095;28;19905;-70
2022/03/25 11:25:54;;;;;;;;;;;15.00;49.80;;;;;;5055095;28;20339;-70
2022/03/25 11:28:27;;;;;;;;;;;15.00;48.70;;;;;;5056002;28;19956;-70
2022/03/25 11:31:04;;;;;;;;;;;15.00;50.60;;;;;;5056215;28;19905;-70
2022/03/25 11:33:29;;;;;;;;;;;15.10;49.00;;;;;;5056504;28;19905;-68
2022/03/25 11:36:11;;;;;;;;;;;15.20;47.60;;;;;;5056379;28;19911;-69
2022/03/25 11:38:37;;;;;;;;;;;15.40;47.00;;;;;;5055901;28;19974;-69
2022/03/25 11:41:20;;;;;;;;;;;15.50;47.10;;;;;;5055728;28;20361;-69
2022/03/25 11:44:05;;;;;;;;;;;15.60;50.00;;;;;;5056315;28;19926;-70
2022/03/25 11:46:30;;;;;;;;;;;15.70;51.20;;;;;;5055673;28;20003;-69
2022/03/25 11:49:16;;;;;;;;;;;15.90;49.00;;;;;;5054331;28;19948;-69
2022/03/25 11:51:41;;;;;;;;;;;15.90;47.60;;;;;;5054140;28;19912;-69
2022/03/25 11:54:33;;;;;;;;;;;15.90;48.80;;;;;;5055515;28;19905;-70
2022/03/25 11:57:00;;;;;;;;;;;16.00;48.10;;;;;;5052871;28;20320;-70
2022/03/25 11:59:45;;;;;;;;;;;16.20;48.00;;;;;;5055472;28;19905;-70
2022/03/25 12:02:29;;;;;;;;;;;16.30;46.90;;;;;;5055727;28;19912;-70
2022/03/25 12:04:55;;;;;;;;;;;16.30;47.40;;;;;;5054004;28;19905;-70
2022/03/25 12:07:21;;;;;;;;;;;16.40;46.60;;;;;;5055536;28;19912;-69
2022/03/25 12:09:46;;;;;;;;;;;16.50;44.50;;;;;;5055733;28;19912;-69
2022/03/25 12:12:13;;;;;;;;;;;16.60;44.90;;;;;;5055159;28;19908;-69
2022/03/25 12:14:57;;;;;;;;;;;16.70;44.00;;;;;;5054623;28;19998;-69
2022/03/25 12:17:23;;;;;;;;;;;16.60;44.70;;;;;;5055002;28;19959;-69
2022/03/25 12:19:51;;;;;;;;;;;16.60;47.00;;;;;;5055270;28;19905;-70
2022/03/25 12:22:19;;;;;;;;;;;16.60;43.20;;;;;;5055257;28;19911;-69
2022/03/25 12:24:46;;;;;;;;;;;16.60;44.60;;;;;;5054780;28;19904;-69
2022/03/25 12:27:11;;;;;;;;;;;16.70;45.30;;;;;;5054818;28;20429;-69
2022/03/25 12:29:38;;;;;;;;;;;16.80;45.10;;;;;;5055080;28;19971;-69
2022/03/25 12:32:05;;;;;;;;;;;17.00;45.70;;;;;;5053780;28;19912;-70
2022/03/25 12:34:30;;;;;;;;;;;17.10;45.00;;;;;;5054643;28;19913;-69
2022/03/25 12:36:56;;;;;;;;;;;17.20;43.70;;;;;;5053443;28;19908;-69
2022/03/25 12:39:22;;;;;;;;;;;17.20;43.40;;;;;;5054929;28;19909;-69
2022/03/25 12:41:48;;;;;;;;;;;17.10;44.40;;;;;;5054854;28;19904;-69
2022/03/25 12:44:14;;;;;;;;;;;17.20;43.60;;;;;;5054594;28;19911;-69
2022/03/25 12:46:39;;;;;;;;;;;17.20;44.60;;;;;;5054770;28;19906;-69
2022/03/25 12:49:06;;;;;;;;;;;17.40;44.80;;;;;;5055022;28;19912;-69
2022/03/25 12:51:31;;;;;;;;;;;17.40;43.30;;;;;;5053779;28;20320;-69
2022/03/25 12:53:57;;;;;;;;;;;17.50;39.70;;;;;;5053644;28;19905;-70
2022/03/25 12:56:23;;;;;;;;;;;17.60;44.10;;;;;;5053826;28;19909;-69
2022/03/25 12:58:50;;;;;;;;;;;17.50;41.70;;;;;;5052845;28;19913;-70
2022/03/25 13:01:17;;;;;;;;;;;17.50;40.30;;;;;;5054172;28;19905;-69
2022/03/25 13:03:44;;;;;;;;;;;17.40;43.00;;;;;;5054457;28;19946;-70
2022/03/25 13:06:10;;;;;;;;;;;17.50;43.90;;;;;;5054065;28;19912;-70
2022/03/25 13:08:36;;;;;;;;;;;17.70;42.50;;;;;;5054037;28;19905;-70
2022/03/25 13:11:01;;;;;;;;;;;17.90;44.60;;;;;;5053848;28;19911;-70
2022/03/25 13:13:31;;;;;;;;;;;18.00;42.90;;;;;;5053978;28;19904;-70
2022/03/25 13:16:00;;;;;;;;;;;18.10;42.70;;;;;;5053920;28;20019;-70
2022/03/25 13:18:29;;;;;;;;;;;18.10;40.80;;;;;;5052755;28;19905;-70
2022/03/25 13:20:55;;;;;;;;;;;18.20;40.20;;;;;;5053907;28;19950;-70
2022/03/25 13:23:22;;;;;;;;;;;18.20;40.40;;;;;;5052708;28;19987;-70
2022/03/25 13:25:48;;;;;;;;;;;18.20;38.90;;;;;;5053847;28;19909;-70
2022/03/25 13:28:33;;;;;;;;;;;18.20;39.60;;;;;;5054122;28;20422;-70
2022/03/25 13:30:59;;;;;;;;;;;18.20;40.40;;;;;;5053968;28;20373;-70
2022/03/25 13:33:26;;;;;;;;;;;18.30;38.70;;;;;;5053839;28;20276;-70
2022/03/25 13:35:53;;;;;;;;;;;18.20;39.50;;;;;;5053824;28;19950;-70
2022/03/25 13:38:21;;;;;;;;;;;18.20;38.80;;;;;;5054017;28;19952;-70
2022/03/25 13:40:50;;;;;;;;;;;18.20;38.80;;;;;;5054271;28;19940;-69
2022/03/25 13:43:20;;;;;;;;;;;18.20;40.90;;;;;;5053718;28;19939;-69
2022/03/25 13:46:06;;;;;;;;;;;18.10;38.90;;;;;;5054255;28;19905;-69
2022/03/25 13:48:36;;;;;;;;;;;18.10;39.20;;;;;;5053631;28;19917;-69
2022/03/25 13:51:03;;;;;;;;;;;18.10;38.40;;;;;;5054081;28;19916;-69
2022/03/25 13:53:33;;;;;;;;;;;18.00;39.60;;;;;;5053569;28;19911;-69
2022/03/25 13:56:08;;;;;;;;;;;18.00;39.30;;;;;;5052544;28;19904;-69
2022/03/25 13:58:33;;;;;;;;;;;18.00;38.50;;;;;;5053431;28;19955;-69
2022/03/25 14:00:59;;;;;;;;;;;17.90;37.20;;;;;;5053742;28;19909;-69
2022/03/25 14:03:32;;;;;;;;;;;17.60;38.50;;;;;;5053548;28;19908;-69
2022/03/25 14:06:10;;;;;;;;;;;17.50;41.00;;;;;;5054149;28;19943;-69
2022/03/25 14:08:36;;;;;;;;;;;17.60;37.90;;;;;;5053782;28;19912;-69
2022/03/25 14:11:02;;;;;;;;;;;17.70;40.60;;;;;;5052207;28;19908;-69
2022/03/25 14:13:27;;;;;;;;;;;17.80;39.40;;;;;;5053787;28;20357;-69
2022/03/25 14:15:53;;;;;;;;;;;17.90;39.50;;;;;;5053360;28;19948;-69
2022/03/25 14:18:19;;;;;;;;;;;17.90;38.20;;;;;;5053293;28;19931;-69
2022/03/25 14:20:45;;;;;;;;;;;17.80;39.90;;;;;;5053320;28;19911;-69
2022/03/25 14:23:19;;;;;;;;;;;17.80;40.40;;;;;;5052069;28;19995;-69
2022/03/25 14:25:45;;;;;;;;;;;17.70;39.20;;;;;;5052092;28;19904;-69
2022/03/25 14:28:13;;;;;;;;;;;17.50;39.80;;;;;;5053534;28;19995;-69
2022/03/25 14:30:39;;;;;;;;;;;17.50;40.70;;;;;;5053678;28;20318;-69
2022/03/25 14:33:05;;;;;;;;;;;17.50;40.40;;;;;;5053551;28;19908;-69